Time;durP1;ratioP1;P1;durP2;ratioP2;P2;SDS_P1;SDS_P2;PMS_P1;PMS_P2;Temp;Humidity;BMP_temperature;BMP_pressure;BME280_temperature;BME280_humidity;BME280_pressure;Samples;Min_cycle;Max_cycle;Signal;HPM_P1;HPM_P2
2023/03/27 00:01:38;;;;;;;;;;;;;;;;;;6211192;23;19916;-89
2023/03/27 00:04:05;;;;;;;;;;;;;;;;;;6207891;23;20253;-89
2023/03/27 00:06:33;;;;;;;;;;;;;;;;;;6183622;23;19966;-89
2023/03/27 00:08:59;;;;;;;;;;;;;;;;;;6208730;23;19970;-89
2023/03/27 00:11:25;;;;;;;;;;;;;;;;;;6233847;23;19919;-89
2023/03/27 00:13:53;;;;;;;;;;;;;;;;;;6228799;23;20004;-89
2023/03/27 00:16:20;;;;;;;;;;;;;;;;;;6232560;23;19919;-89
2023/03/27 00:18:46;;;;;;;;;;;;;;;;;;6181810;23;19923;-89
2023/03/27 00:21:12;;;;;;;;;;;;;;;;;;6233036;23;19926;-89
2023/03/27 00:23:38;;;;;;;;;;;;;;;;;;6232103;23;19923;-89
2023/03/27 00:26:04;;;;;;;;;;;;;;;;;;6206436;23;20410;-89
2023/03/27 00:28:30;;;;;;;;;;;;;;;;;;6208841;23;19923;-89
2023/03/27 00:30:56;;;;;;;;;;;;;;;;;;6207980;23;20299;-89
2023/03/27 00:33:22;;;;;;;;;;;;;;;;;;6208734;23;19927;-89
2023/03/27 00:35:48;;;;;;;;;;;;;;;;;;6233109;23;19920;-89
2023/03/27 00:38:14;;;;;;;;;;;;;;;;;;6235003;23;20318;-89
2023/03/27 00:40:40;;;;;;;;;;;;;;;;;;6236154;23;19919;-89
2023/03/27 00:43:06;;;;;;;;;;;;;;;;;;6204100;23;19919;-88
2023/03/27 00:45:32;;;;;;;;;;;;;;;;;;6234922;23;20362;-89
2023/03/27 00:47:58;;;;;;;;;;;;;;;;;;6231247;23;20252;-89
2023/03/27 00:50:24;;;;;;;;;;;;;;;;;;6235723;23;19923;-89
2023/03/27 00:52:49;;;;;;;;;;;;;;;;;;6231354;23;19915;-89
2023/03/27 00:55:16;;;;;;;;;;;;;;;;;;6206657;23;20324;-90
2023/03/27 00:57:42;;;;;;;;;;;;;;;;;;6232393;23;19973;-90
2023/03/27 01:00:12;;;;;;;;;;;;;;;;;;6207948;23;20406;-89
2023/03/27 01:02:38;;;;;;;;;;;;;;;;;;6233466;23;19970;-90
2023/03/27 01:05:04;;;;;;;;;;;;;;;;;;6206802;23;19920;-89
2023/03/27 01:07:30;;;;;;;;;;;;;;;;;;6207571;23;20212;-90
2023/03/27 01:09:56;;;;;;;;;;;;;;;;;;6230311;23;19942;-90
2023/03/27 01:12:22;;;;;;;;;;;;;;;;;;6236275;23;19915;-90
2023/03/27 01:14:48;;;;;;;;;;;;;;;;;;6206399;23;20003;-89
2023/03/27 01:17:14;;;;;;;;;;;;;;;;;;6204879;23;20341;-90
2023/03/27 01:19:40;;;;;;;;;;;;;;;;;;6232645;23;20856;-90
2023/03/27 01:22:08;;;;;;;;;;;;;;;;;;6205116;23;20277;-90
2023/03/27 01:24:34;;;;;;;;;;;;;;;;;;6206168;23;19930;-90
2023/03/27 01:27:00;;;;;;;;;;;;;;;;;;6226928;23;19915;-90
2023/03/27 01:29:26;;;;;;;;;;;;;;;;;;6228493;23;19927;-90
2023/03/27 01:31:52;;;;;;;;;;;;;;;;;;6203449;23;19915;-90
2023/03/27 01:34:18;;;;;;;;;;;;;;;;;;6183816;23;19995;-90
2023/03/27 01:36:44;;;;;;;;;;;;;;;;;;6204794;23;19924;-90
2023/03/27 01:39:10;;;;;;;;;;;;;;;;;;6234094;23;19943;-90
2023/03/27 01:41:36;;;;;;;;;;;;;;;;;;6231791;23;20028;-90
2023/03/27 01:44:02;;;;;;;;;;;;;;;;;;6231866;23;19931;-90
2023/03/27 01:46:27;;;;;;;;;;;;;;;;;;6207343;23;20253;-89
2023/03/27 01:48:54;;;;;;;;;;;;;;;;;;6233511;23;20054;-91
2023/03/27 01:51:20;;;;;;;;;;;;;;;;;;6209607;23;19927;-90
2023/03/27 01:53:46;;;;;;;;;;;;;;;;;;6234647;23;20315;-90
2023/03/27 01:56:12;;;;;;;;;;;;;;;;;;6236469;23;19919;-90
2023/03/27 01:58:38;;;;;;;;;;;;;;;;;;6236549;23;19986;-90
2023/03/27 02:01:04;;;;;;;;;;;;;;;;;;6234103;23;20005;-91
2023/03/27 02:03:32;;;;;;;;;;;;;;;;;;6212965;23;19919;-90
2023/03/27 02:05:58;;;;;;;;;;;;;;;;;;6235644;23;19916;-90
2023/03/27 02:08:25;;;;;;;;;;;;;;;;;;6235164;23;19931;-91
2023/03/27 02:10:51;;;;;;;;;;;;;;;;;;6232360;23;19915;-91
2023/03/27 02:13:17;;;;;;;;;;;;;;;;;;6238607;23;19922;-90
2023/03/27 02:15:44;;;;;;;;;;;;;;;;;;6234095;23;20343;-91
2023/03/27 02:18:10;;;;;;;;;;;;;;;;;;6206196;23;19923;-90
2023/03/27 02:20:35;;;;;;;;;;;;;;;;;;6232514;23;19919;-91
2023/03/27 02:23:01;;;;;;;;;;;;;;;;;;6230863;23;19923;-90
2023/03/27 02:25:27;;;;;;;;;;;;;;;;;;6208166;23;19915;-91
2023/03/27 02:27:53;;;;;;;;;;;;;;;;;;6207238;22;19984;-90
2023/03/27 02:30:19;;;;;;;;;;;;;;;;;;6212454;22;19915;-90
2023/03/27 02:32:45;;;;;;;;;;;;;;;;;;6212949;22;20022;-91
2023/03/27 02:35:11;;;;;;;;;;;;;;;;;;6239404;22;19919;-91
2023/03/27 02:37:38;;;;;;;;;;;;;;;;;;6238901;22;19919;-91
2023/03/27 02:40:12;;;;;;;;;;;;;;;;;;6216043;22;20351;-90
2023/03/27 02:42:38;;;;;;;;;;;;;;;;;;6239602;22;19930;-91
2023/03/27 02:45:04;;;;;;;;;;;;;;;;;;6211445;22;20407;-91
2023/03/27 02:47:30;;;;;;;;;;;;;;;;;;6240551;22;19919;-91
2023/03/27 02:49:56;;;;;;;;;;;;;;;;;;6210732;22;20413;-91
2023/03/27 02:52:22;;;;;;;;;;;;;;;;;;6240060;22;19946;-91
2023/03/27 02:54:48;;;;;;;;;;;;;;;;;;6238208;22;19985;-91
2023/03/27 02:57:14;;;;;;;;;;;;;;;;;;6240176;22;19923;-91
2023/03/27 02:59:41;;;;;;;;;;;;;;;;;;6213200;22;19978;-91
2023/03/27 03:02:07;;;;;;;;;;;;;;;;;;6212832;22;19923;-91
2023/03/27 03:04:33;;;;;;;;;;;;;;;;;;6214060;22;20375;-90
2023/03/27 03:07:03;;;;;;;;;;;;;;;;;;6210561;22;19926;-91
2023/03/27 03:09:29;;;;;;;;;;;;;;;;;;6239144;22;20332;-90
2023/03/27 03:11:56;;;;;;;;;;;;;;;;;;6236966;22;19923;-91
2023/03/27 03:14:22;;;;;;;;;;;;;;;;;;6238802;22;19923;-91
2023/03/27 03:16:48;;;;;;;;;;;;;;;;;;6212752;22;20423;-91
2023/03/27 03:19:14;;;;;;;;;;;;;;;;;;6241063;22;19915;-90
2023/03/27 03:21:48;;;;;;;;;;;;;;;;;;6238437;22;19915;-90
2023/03/27 03:24:14;;;;;;;;;;;;;;;;;;6210510;22;19931;-91
2023/03/27 03:26:40;;;;;;;;;;;;;;;;;;6213795;22;19999;-91
2023/03/27 03:29:06;;;;;;;;;;;;;;;;;;6263879;22;19919;-91
2023/03/27 03:31:42;;;;;;;;;;;;;;;;;;6236641;22;19926;-91
2023/03/27 03:34:09;;;;;;;;;;;;;;;;;;6212616;22;20399;-90
2023/03/27 03:36:35;;;;;;;;;;;;;;;;;;6238981;22;19926;-90
2023/03/27 03:39:01;;;;;;;;;;;;;;;;;;6211896;22;20724;-91
2023/03/27 03:41:27;;;;;;;;;;;;;;;;;;6266692;22;19919;-91
2023/03/27 03:43:53;;;;;;;;;;;;;;;;;;6211622;22;19958;-91
2023/03/27 03:46:19;;;;;;;;;;;;;;;;;;6213211;22;19919;-91
2023/03/27 03:48:45;;;;;;;;;;;;;;;;;;6211929;22;19919;-91
2023/03/27 03:51:11;;;;;;;;;;;;;;;;;;6240710;22;19927;-91
2023/03/27 03:53:37;;;;;;;;;;;;;;;;;;6213633;22;19934;-91
2023/03/27 03:56:03;;;;;;;;;;;;;;;;;;6213204;22;20331;-91
2023/03/27 03:58:30;;;;;;;;;;;;;;;;;;6241778;22;19919;-91
2023/03/27 04:00:56;;;;;;;;;;;;;;;;;;6238889;22;19916;-91
2023/03/27 04:03:25;;;;;;;;;;;;;;;;;;6216522;22;19920;-91
2023/03/27 04:05:51;;;;;;;;;;;;;;;;;;6238638;22;19926;-92
2023/03/27 04:08:17;;;;;;;;;;;;;;;;;;6212794;22;20325;-91
2023/03/27 04:10:43;;;;;;;;;;;;;;;;;;6235426;22;19970;-91
2023/03/27 04:13:09;;;;;;;;;;;;;;;;;;6212652;22;19919;-91
2023/03/27 04:15:36;;;;;;;;;;;;;;;;;;6266869;22;19919;-92
2023/03/27 04:18:02;;;;;;;;;;;;;;;;;;6209712;22;19948;-91
2023/03/27 04:20:28;;;;;;;;;;;;;;;;;;6215360;22;20361;-91
2023/03/27 04:22:54;;;;;;;;;;;;;;;;;;6213161;22;19927;-91
2023/03/27 04:25:24;;;;;;;;;;;;;;;;;;6212593;22;19967;-91
2023/03/27 04:27:50;;;;;;;;;;;;;;;;;;6232653;22;19920;-91
2023/03/27 04:30:16;;;;;;;;;;;;;;;;;;6237976;22;20248;-91
2023/03/27 04:32:42;;;;;;;;;;;;;;;;;;6236199;22;19942;-90
2023/03/27 04:35:11;;;;;;;;;;;;;;;;;;6238879;22;19919;-90
2023/03/27 04:37:37;;;;;;;;;;;;;;;;;;6212071;22;19919;-90
2023/03/27 04:40:03;;;;;;;;;;;;;;;;;;6236160;22;19915;-90
2023/03/27 04:42:30;;;;;;;;;;;;;;;;;;6238354;22;20326;-91
2023/03/27 04:44:56;;;;;;;;;;;;;;;;;;6211631;22;19915;-91
2023/03/27 04:47:22;;;;;;;;;;;;;;;;;;6213024;22;20247;-91
2023/03/27 04:49:49;;;;;;;;;;;;;;;;;;6237583;22;19919;-91
2023/03/27 04:52:15;;;;;;;;;;;;;;;;;;6238147;22;20363;-91
2023/03/27 04:54:41;;;;;;;;;;;;;;;;;;6237891;22;19919;-92
2023/03/27 04:57:08;;;;;;;;;;;;;;;;;;6238277;22;19959;-91
2023/03/27 04:59:34;;;;;;;;;;;;;;;;;;6213934;22;19915;-91
2023/03/27 05:02:00;;;;;;;;;;;;;;;;;;6234648;22;20244;-91
2023/03/27 05:04:26;;;;;;;;;;;;;;;;;;6236331;22;19953;-91
2023/03/27 05:06:52;;;;;;;;;;;;;;;;;;6235879;22;19919;-92
2023/03/27 05:09:19;;;;;;;;;;;;;;;;;;6238143;22;20302;-91
2023/03/27 05:11:48;;;;;;;;;;;;;;;;;;6234876;22;19916;-91
2023/03/27 05:14:14;;;;;;;;;;;;;;;;;;6265655;22;20251;-91
2023/03/27 05:16:41;;;;;;;;;;;;;;;;;;6238483;22;20378;-91
2023/03/27 05:19:07;;;;;;;;;;;;;;;;;;6213502;22;19926;-91
2023/03/27 05:21:33;;;;;;;;;;;;;;;;;;6239406;22;20324;-91
2023/03/27 05:23:59;;;;;;;;;;;;;;;;;;6213714;22;19946;-91
2023/03/27 05:26:25;;;;;;;;;;;;;;;;;;6241207;22;20340;-91
2023/03/27 05:28:54;;;;;;;;;;;;;;;;;;6207481;23;19931;-90
2023/03/27 05:31:21;;;;;;;;;;;;;;;;;;6235537;23;19919;-91
2023/03/27 05:33:47;;;;;;;;;;;;;;;;;;6207262;23;19927;-91
2023/03/27 05:36:14;;;;;;;;;;;;;;;;;;6207513;23;19920;-90
2023/03/27 05:38:40;;;;;;;;;;;;;;;;;;6234692;23;19920;-91
2023/03/27 05:41:06;;;;;;;;;;;;;;;;;;6207048;23;19922;-91
2023/03/27 05:43:32;;;;;;;;;;;;;;;;;;6236808;23;20416;-90
2023/03/27 05:45:58;;;;;;;;;;;;;;;;;;6205728;23;19934;-90
2023/03/27 05:48:25;;;;;;;;;;;;;;;;;;6235515;23;19919;-91
2023/03/27 05:50:50;;;;;;;;;;;;;;;;;;6209376;23;19945;-90
2023/03/27 05:53:17;;;;;;;;;;;;;;;;;;6235623;23;19915;-91
2023/03/27 05:55:43;;;;;;;;;;;;;;;;;;6208455;23;19919;-91
2023/03/27 05:58:10;;;;;;;;;;;;;;;;;;6211403;23;20030;-90
2023/03/27 06:00:37;;;;;;;;;;;;;;;;;;6237473;23;20256;-91
2023/03/27 06:03:03;;;;;;;;;;;;;;;;;;6207368;23;19924;-90
2023/03/27 06:05:29;;;;;;;;;;;;;;;;;;6235716;23;20400;-91
2023/03/27 06:07:57;;;;;;;;;;;;;;;;;;6208116;23;19915;-90
2023/03/27 06:10:29;;;;;;;;;;;;;;;;;;6202962;23;19920;-91
2023/03/27 06:12:55;;;;;;;;;;;;;;;;;;6206139;23;20225;-90
2023/03/27 06:15:33;;;;;;;;;;;;;;;;;;6236107;23;19934;-90
2023/03/27 06:17:59;;;;;;;;;;;;;;;;;;6208028;23;19994;-91
2023/03/27 06:20:35;;;;;;;;;;;;;;;;;;6209114;23;19929;-91
2023/03/27 06:34:13;;;;;;;;;;;;;;;;;;6264653;22;20026;-83
2023/03/27 07:04:40;;;;;;;;;;;;;;;;;;6258627;22;19923;-82
2023/03/27 07:07:05;;;;;;;;;;;;;;;;;;6236714;22;19943;-82
2023/03/27 07:09:31;;;;;;;;;;;;;;;;;;6216043;22;19969;-83
2023/03/27 07:11:57;;;;;;;;;;;;;;;;;;6214722;22;19923;-83
2023/03/27 07:14:23;;;;;;;;;;;;;;;;;;6216401;22;19919;-82
2023/03/27 07:16:50;;;;;;;;;;;;;;;;;;6266726;22;20376;-83
2023/03/27 07:19:16;;;;;;;;;;;;;;;;;;6216948;22;19990;-83
2023/03/27 07:21:42;;;;;;;;;;;;;;;;;;6214754;22;19996;-83
2023/03/27 07:24:07;;;;;;;;;;;;;;;;;;6263234;22;19919;-83
2023/03/27 07:26:33;;;;;;;;;;;;;;;;;;6212485;22;20244;-83
2023/03/27 07:29:00;;;;;;;;;;;;;;;;;;6210465;22;19919;-83
2023/03/27 07:31:27;;;;;;;;;;;;;;;;;;6236650;22;19925;-83
2023/03/27 07:33:53;;;;;;;;;;;;;;;;;;6263635;22;19919;-83
2023/03/27 07:36:19;;;;;;;;;;;;;;;;;;6214468;22;19994;-83
2023/03/27 07:38:46;;;;;;;;;;;;;;;;;;6239020;22;20312;-84
2023/03/27 07:41:12;;;;;;;;;;;;;;;;;;6238639;22;19924;-84
2023/03/27 07:43:38;;;;;;;;;;;;;;;;;;6236061;22;19934;-83
2023/03/27 07:46:05;;;;;;;;;;;;;;;;;;6208417;22;19919;-84
2023/03/27 07:48:31;;;;;;;;;;;;;;;;;;6239815;22;20020;-84
2023/03/27 07:50:57;;;;;;;;;;;;;;;;;;6236285;22;19923;-83
2023/03/27 07:53:24;;;;;;;;;;;;;;;;;;6211644;22;20230;-83
2023/03/27 07:55:51;;;;;;;;;;;;;;;;;;6206756;22;19915;-83
2023/03/27 07:58:20;;;;;;;;;;;;;;;;;;6211380;22;19919;-84
2023/03/27 08:00:50;;;;;;;;;;;;;;;;;;6208254;22;20542;-84
2023/03/27 08:03:16;;;;;;;;;;;;;;;;;;6234791;22;19930;-84
2023/03/27 08:05:42;;;;;;;;;;;;;;;;;;6233515;22;20414;-84
2023/03/27 08:08:08;;;;;;;;;;;;;;;;;;6211408;22;19915;-84
2023/03/27 08:10:35;;;;;;;;;;;;;;;;;;6211330;22;19994;-83
2023/03/27 08:13:01;;;;;;;;;;;;;;;;;;6234677;22;20791;-83
2023/03/27 08:15:27;;;;;;;;;;;;;;;;;;6213406;22;19919;-84
2023/03/27 08:17:53;;;;;;;;;;;;;;;;;;6235085;22;19950;-83
2023/03/27 08:20:19;;;;;;;;;;;;;;;;;;6210319;22;19941;-83
2023/03/27 08:22:45;;;;;;;;;;;;;;;;;;6233844;22;20049;-83
2023/03/27 08:25:11;;;;;;;;;;;;;;;;;;6211980;22;19994;-84
2023/03/27 08:27:37;;;;;;;;;;;;;;;;;;6211673;22;19919;-84
2023/03/27 08:30:03;;;;;;;;;;;;;;;;;;6235633;22;19919;-83
2023/03/27 08:32:29;;;;;;;;;;;;;;;;;;6238138;22;19955;-84
2023/03/27 08:34:55;;;;;;;;;;;;;;;;;;6211653;22;20288;-84
2023/03/27 08:37:21;;;;;;;;;;;;;;;;;;6237017;22;20351;-84
2023/03/27 08:39:47;;;;;;;;;;;;;;;;;;6234088;22;20018;-83
2023/03/27 08:42:14;;;;;;;;;;;;;;;;;;6210175;22;20024;-83
2023/03/27 08:44:43;;;;;;;;;;;;;;;;;;6237807;22;20393;-84
2023/03/27 08:47:10;;;;;;;;;;;;;;;;;;6237212;22;19916;-83
2023/03/27 08:49:36;;;;;;;;;;;;;;;;;;6238879;22;19923;-84
2023/03/27 08:52:02;;;;;;;;;;;;;;;;;;6234482;22;20360;-84
2023/03/27 08:54:29;;;;;;;;;;;;;;;;;;6265573;22;19988;-84
2023/03/27 08:56:55;;;;;;;;;;;;;;;;;;6212107;22;20332;-84
2023/03/27 08:59:21;;;;;;;;;;;;;;;;;;6237423;22;19926;-84
2023/03/27 09:01:47;;;;;;;;;;;;;;;;;;6208682;22;19919;-84
2023/03/27 09:04:13;;;;;;;;;;;;;;;;;;6241503;22;19927;-83
2023/03/27 09:06:40;;;;;;;;;;;;;;;;;;6216682;22;20336;-84
2023/03/27 09:09:06;;;;;;;;;;;;;;;;;;6212360;22;19919;-84
2023/03/27 09:11:32;;;;;;;;;;;;;;;;;;6211541;22;19922;-84
2023/03/27 09:13:58;;;;;;;;;;;;;;;;;;6238630;22;20565;-84
2023/03/27 09:16:24;;;;;;;;;;;;;;;;;;6239316;22;20010;-84
2023/03/27 09:18:50;;;;;;;;;;;;;;;;;;6211915;22;19965;-83
2023/03/27 09:21:16;;;;;;;;;;;;;;;;;;6239127;22;19951;-84
2023/03/27 09:23:42;;;;;;;;;;;;;;;;;;6234741;22;19923;-84
2023/03/27 09:26:08;;;;;;;;;;;;;;;;;;6212413;22;19919;-83
2023/03/27 09:28:34;;;;;;;;;;;;;;;;;;6210844;22;19930;-84
2023/03/27 09:31:02;;;;;;;;;;;;;;;;;;6208354;22;20328;-83
2023/03/27 09:33:28;;;;;;;;;;;;;;;;;;6237409;22;19925;-84
2023/03/27 09:35:54;;;;;;;;;;;;;;;;;;6209410;22;20377;-83
2023/03/27 09:38:20;;;;;;;;;;;;;;;;;;6212086;22;19919;-83
2023/03/27 09:40:47;;;;;;;;;;;;;;;;;;6211675;22;19915;-84
2023/03/27 09:43:13;;;;;;;;;;;;;;;;;;6213294;22;20292;-84
2023/03/27 09:45:40;;;;;;;;;;;;;;;;;;6239671;22;19919;-84
2023/03/27 09:48:09;;;;;;;;;;;;;;;;;;6212481;22;19919;-84
2023/03/27 09:50:37;;;;;;;;;;;;;;;;;;6213640;22;20162;-83
2023/03/27 09:53:03;;;;;;;;;;;;;;;;;;6212516;22;19919;-84
2023/03/27 09:55:29;;;;;;;;;;;;;;;;;;6214309;22;19929;-84
2023/03/27 09:57:57;;;;;;;;;;;;;;;;;;6212202;22;19919;-84
2023/03/27 10:00:25;;;;;;;;;;;;;;;;;;6214987;22;20061;-84
2023/03/27 10:02:53;;;;;;;;;;;;;;;;;;6266930;22;19923;-84
2023/03/27 10:05:21;;;;;;;;;;;;;;;;;;6236696;23;20288;-83
2023/03/27 10:07:47;;;;;;;;;;;;;;;;;;6231398;23;20275;-83
2023/03/27 10:10:14;;;;;;;;;;;;;;;;;;6234216;23;19922;-83
2023/03/27 10:12:40;;;;;;;;;;;;;;;;;;6236277;22;19915;-84
2023/03/27 10:15:07;;;;;;;;;;;;;;;;;;6236426;23;19919;-83
2023/03/27 10:17:33;;;;;;;;;;;;;;;;;;6207475;23;19969;-84
2023/03/27 10:19:59;;;;;;;;;;;;;;;;;;6231051;23;19919;-83
2023/03/27 10:22:25;;;;;;;;;;;;;;;;;;6234178;23;19928;-83
2023/03/27 10:24:52;;;;;;;;;;;;;;;;;;6234175;23;19919;-83
2023/03/27 10:27:18;;;;;;;;;;;;;;;;;;6231956;23;20370;-84
2023/03/27 10:29:44;;;;;;;;;;;;;;;;;;6229226;23;19915;-84
2023/03/27 10:32:10;;;;;;;;;;;;;;;;;;6234671;23;20328;-84
2023/03/27 10:34:36;;;;;;;;;;;;;;;;;;6235209;23;19970;-84
2023/03/27 10:37:03;;;;;;;;;;;;;;;;;;6231329;23;20232;-84
2023/03/27 10:39:29;;;;;;;;;;;;;;;;;;6208106;23;19995;-84
2023/03/27 10:41:55;;;;;;;;;;;;;;;;;;6203207;23;20006;-84
2023/03/27 10:44:24;;;;;;;;;;;;;;;;;;6235347;23;20289;-84
2023/03/27 10:46:50;;;;;;;;;;;;;;;;;;6206923;23;19942;-83
2023/03/27 10:49:16;;;;;;;;;;;;;;;;;;6237460;23;19916;-84
2023/03/27 10:51:42;;;;;;;;;;;;;;;;;;6207274;23;20275;-84
2023/03/27 10:54:08;;;;;;;;;;;;;;;;;;6183438;23;20502;-83
2023/03/27 10:56:35;;;;;;;;;;;;;;;;;;6210611;23;20102;-84
2023/03/27 10:59:01;;;;;;;;;;;;;;;;;;6232532;23;20363;-84
2023/03/27 11:01:27;;;;;;;;;;;;;;;;;;6210861;23;19947;-84
2023/03/27 11:03:53;;;;;;;;;;;;;;;;;;6211279;22;19924;-84
2023/03/27 11:06:18;;;;;;;;;;;;;;;;;;6215697;22;19955;-84
2023/03/27 11:08:45;;;;;;;;;;;;;;;;;;6213238;22;19977;-84
2023/03/27 11:11:11;;;;;;;;;;;;;;;;;;6240534;22;19919;-84
2023/03/27 11:13:37;;;;;;;;;;;;;;;;;;6239853;22;19919;-83
2023/03/27 11:16:03;;;;;;;;;;;;;;;;;;6236576;22;19923;-84
2023/03/27 11:18:29;;;;;;;;;;;;;;;;;;6241596;22;20006;-84
2023/03/27 11:20:55;;;;;;;;;;;;;;;;;;6237534;22;19927;-84
2023/03/27 11:23:21;;;;;;;;;;;;;;;;;;6216471;22;19919;-84
2023/03/27 11:25:47;;;;;;;;;;;;;;;;;;6240146;22;19958;-84
2023/03/27 11:28:14;;;;;;;;;;;;;;;;;;6215471;22;19977;-83
2023/03/27 11:30:43;;;;;;;;;;;;;;;;;;6217059;22;19986;-83
2023/03/27 11:33:09;;;;;;;;;;;;;;;;;;6215986;22;19990;-83
2023/03/27 11:35:35;;;;;;;;;;;;;;;;;;6217999;22;19950;-84
2023/03/27 11:38:02;;;;;;;;;;;;;;;;;;6214040;22;20169;-84
2023/03/27 11:40:28;;;;;;;;;;;;;;;;;;6215319;22;19990;-84
2023/03/27 11:42:54;;;;;;;;;;;;;;;;;;6212258;22;19969;-84
2023/03/27 11:45:20;;;;;;;;;;;;;;;;;;6214256;22;19923;-84
2023/03/27 11:47:46;;;;;;;;;;;;;;;;;;6211901;22;20350;-84
2023/03/27 11:50:20;;;;;;;;;;;;;;;;;;5114243;27;20464;-83
2023/03/27 11:52:46;;;;;;;;;;;;;;;;;;5106529;27;19933;-83
2023/03/27 11:55:13;;;;;;;;;;;;;;;;;;5116060;28;19920;-83
2023/03/27 11:57:39;;;;;;;;;;;;;;;;;;5116489;27;20014;-83
2023/03/27 12:00:05;;;;;;;;;;;;;;;;;;5114756;27;19923;-83
2023/03/27 12:02:31;;;;;;;;;;;;;;;;;;5115698;27;19934;-83
2023/03/27 12:04:57;;;;;;;;;;;;;;;;;;5108067;27;20061;-83
2023/03/27 12:07:23;;;;;;;;;;;;;;;;;;5110857;27;19928;-83
2023/03/27 12:09:49;;;;;;;;;;;;;;;;;;5108815;27;19967;-83
2023/03/27 12:12:15;;;;;;;;;;;;;;;;;;5109868;27;19961;-84
2023/03/27 12:14:42;;;;;;;;;;;;;;;;;;5110959;27;20385;-84
2023/03/27 12:17:08;;;;;;;;;;;;;;;;;;5111179;27;19930;-83
2023/03/27 12:19:34;;;;;;;;;;;;;;;;;;5114170;27;19956;-83
2023/03/27 12:22:00;;;;;;;;;;;;;;;;;;5110527;27;19924;-83
2023/03/27 12:24:27;;;;;;;;;;;;;;;;;;5114153;27;19991;-83
2023/03/27 12:26:53;;;;;;;;;;;;;;;;;;5090586;27;20405;-83
2023/03/27 12:29:19;;;;;;;;;;;;;;;;;;5112060;27;20050;-83
2023/03/27 12:31:45;;;;;;;;;;;;;;;;;;5107151;27;19931;-83
2023/03/27 12:34:11;;;;;;;;;;;;;;;;;;5112274;27;20366;-84
2023/03/27 12:36:37;;;;;;;;;;;;;;;;;;5114267;27;19927;-83
2023/03/27 12:39:05;;;;;;;;;;;;;;;;;;5110135;27;19958;-83
2023/03/27 12:41:34;;;;;;;;;;;;;;;;;;5110242;27;19970;-83
2023/03/27 12:44:00;;;;;;;;;;;;;;;;;;5109216;28;19972;-83
2023/03/27 12:46:27;;;;;;;;;;;;;;;;;;5089989;28;19923;-83
2023/03/27 12:48:53;;;;;;;;;;;;;;;;;;5109421;27;19928;-84
2023/03/27 13:03:35;;;;;;;;;;;;;;;;;;4951534;28;20200;-83
2023/03/27 13:06:23;;;;;;;;;;;;;;;;;;4988423;28;19929;-83
2023/03/27 13:12:14;;;;;;;;;;;;;;;;;;4983399;28;19947;-83
2023/03/27 13:15:05;;;;;;;;;;;;;;;;;;;;;
2023/03/27 15:30:00;;;;;;;;;;;;;;;;;;;;;
2023/03/27 15:32:41;;;;;;;;;;;;;;;;;;4757416;29;19930;-91
2023/03/27 15:35:13;;;;;;;;;;;;;;;;;;4759169;29;20297;-92
2023/03/27 15:37:39;;;;;;;;;;;;;;;;;;4749013;29;19933;-92
2023/03/27 15:43:03;;;;;;;;;;;;;;;;;;4757813;29;19925;-91
2023/03/27 15:45:33;;;;;;;;;;;;;;;;;;4765082;29;20075;-91
2023/03/27 15:48:05;;;;;;;;;;;;;;;;;;4747346;29;20376;-92
2023/03/27 15:50:52;;;;;;;;;;;;;;;;;;4755559;29;19929;-91
2023/03/27 15:57:02;;;;;;;;;;;;;;;;;;;;;
2023/03/27 16:27:53;;;;;;;;;;;;;;;;;;4563985;31;20025;-92
2023/03/27 16:40:12;;;;;;;;;;;;;;;;;;4570465;31;20521;-90
2023/03/27 17:16:47;;;;;;;;;;;;;;;;;;5373091;24;20380;-92
2023/03/27 17:19:13;;;;;;;;;;;;;;;;;;4744708;29;23754;-91
2023/03/27 17:21:39;;;;;;;;;;;;;;;;;;4746338;29;19929;-92
2023/03/27 17:24:05;;;;;;;;;;;;;;;;;;4740307;29;19998;-91
2023/03/27 17:26:32;;;;;;;;;;;;;;;;;;4744997;29;19978;-91
2023/03/27 17:28:58;;;;;;;;;;;;;;;;;;4725023;29;19995;-90
2023/03/27 17:31:24;;;;;;;;;;;;;;;;;;4728741;29;19933;-91
2023/03/27 17:33:50;;;;;;;;;;;;;;;;;;4726268;29;19930;-91
2023/03/27 17:36:16;;;;;;;;;;;;;;;;;;4759793;29;19955;-90
2023/03/27 17:38:42;;;;;;;;;;;;;;;;;;4724413;29;19940;-91
2023/03/27 17:41:08;;;;;;;;;;;;;;;;;;4729609;29;20468;-90
2023/03/27 17:43:34;;;;;;;;;;;;;;;;;;4742994;29;20313;-90
2023/03/27 17:46:00;;;;;;;;;;;;;;;;;;4739638;29;19940;-92
2023/03/27 17:48:26;;;;;;;;;;;;;;;;;;4727940;29;20065;-90
2023/03/27 17:50:52;;;;;;;;;;;;;;;;;;4732669;29;19940;-91
2023/03/27 17:53:21;;;;;;;;;;;;;;;;;;4742492;30;20265;-90
2023/03/27 17:55:59;;;;;;;;;;;;;;;;;;4730902;30;19942;-91
2023/03/27 17:58:27;;;;;;;;;;;;;;;;;;4752935;30;19987;-90
2023/03/27 18:01:03;;;;;;;;;;;;;;;;;;4748811;30;20344;-91
2023/03/27 18:06:30;;;;;;;;;;;;;;;;;;4722259;30;20674;-90
2023/03/27 18:09:04;;;;;;;;;;;;;;;;;;4727958;30;20345;-90
2023/03/27 18:11:36;;;;;;;;;;;;;;;;;;4752437;30;19983;-90
2023/03/27 18:14:07;;;;;;;;;;;;;;;;;;4733892;30;21361;-90
2023/03/27 18:16:36;;;;;;;;;;;;;;;;;;4733903;30;19945;-90
2023/03/27 18:19:02;;;;;;;;;;;;;;;;;;4726874;30;20873;-90
2023/03/27 18:21:31;;;;;;;;;;;;;;;;;;4726570;30;19973;-91
2023/03/27 18:24:03;;;;;;;;;;;;;;;;;;4722391;30;20163;-91
2023/03/27 18:26:33;;;;;;;;;;;;;;;;;;4724923;30;19952;-90
2023/03/27 18:29:15;;;;;;;;;;;;;;;;;;;;;
2023/03/27 18:31:44;;;;;;;;;;;;;;;;;;4737802;30;20041;-90
2023/03/27 18:34:21;;;;;;;;;;;;;;;;;;4729479;30;19940;-90
2023/03/27 18:36:56;;;;;;;;;;;;;;;;;;4729625;30;19945;-91
2023/03/27 19:49:50;;;;;;;;;;;;;;;;;;4934369;24;19934;-91
2023/03/27 19:52:18;;;;;;;;;;;;;;;;;;4710980;30;20328;-91
2023/03/27 19:54:44;;;;;;;;;;;;;;;;;;4727496;30;20562;-91
2023/03/27 19:57:10;;;;;;;;;;;;;;;;;;4736327;30;20021;-92
2023/03/27 19:59:36;;;;;;;;;;;;;;;;;;4720492;30;19955;-90
2023/03/27 20:02:02;;;;;;;;;;;;;;;;;;4717634;30;22357;-91
2023/03/27 20:04:29;;;;;;;;;;;;;;;;;;4721398;30;19936;-92
2023/03/27 20:06:57;;;;;;;;;;;;;;;;;;4723498;30;20011;-91
2023/03/27 20:09:23;;;;;;;;;;;;;;;;;;4734753;30;19978;-90
2023/03/27 20:11:49;;;;;;;;;;;;;;;;;;4717848;30;19930;-91
2023/03/27 20:14:15;;;;;;;;;;;;;;;;;;4720522;30;20359;-91
2023/03/27 20:16:41;;;;;;;;;;;;;;;;;;4741356;30;19934;-91
2023/03/27 20:19:08;;;;;;;;;;;;;;;;;;4734054;30;19937;-90
2023/03/27 20:21:34;;;;;;;;;;;;;;;;;;4738550;30;20079;-89
2023/03/27 20:24:00;;;;;;;;;;;;;;;;;;4727384;30;20397;-91
2023/03/27 20:26:28;;;;;;;;;;;;;;;;;;4741407;30;19929;-91
2023/03/27 20:28:54;;;;;;;;;;;;;;;;;;4733673;30;20455;-92
2023/03/27 20:31:20;;;;;;;;;;;;;;;;;;4732234;30;19937;-92
2023/03/27 20:33:46;;;;;;;;;;;;;;;;;;4716759;30;19929;-91
2023/03/27 20:36:12;;;;;;;;;;;;;;;;;;4723917;30;20401;-92
2023/03/27 20:38:38;;;;;;;;;;;;;;;;;;4720519;30;19955;-91
2023/03/27 20:41:04;;;;;;;;;;;;;;;;;;4730296;30;20420;-92
2023/03/27 20:43:33;;;;;;;;;;;;;;;;;;4718265;30;19983;-90
2023/03/27 20:45:59;;;;;;;;;;;;;;;;;;4724917;30;19986;-90
2023/03/27 20:48:31;;;;;;;;;;;;;;;;;;4716147;30;19944;-92
2023/03/27 20:50:57;;;;;;;;;;;;;;;;;;4724191;30;19940;-91
2023/03/27 20:53:28;;;;;;;;;;;;;;;;;;4726261;30;19937;-92
2023/03/27 20:55:54;;;;;;;;;;;;;;;;;;4705468;30;19926;-91
2023/03/27 20:58:20;;;;;;;;;;;;;;;;;;4730853;30;19934;-91
2023/03/27 21:00:47;;;;;;;;;;;;;;;;;;4713268;30;19937;-91
2023/03/27 21:03:15;;;;;;;;;;;;;;;;;;4717405;30;19929;-91
2023/03/27 21:05:43;;;;;;;;;;;;;;;;;;4718298;30;19930;-91
2023/03/27 21:08:09;;;;;;;;;;;;;;;;;;4719287;30;19930;-90
2023/03/27 21:10:35;;;;;;;;;;;;;;;;;;4711723;30;19930;-90
2023/03/27 21:13:01;;;;;;;;;;;;;;;;;;4708539;30;20792;-91
2023/03/27 21:15:27;;;;;;;;;;;;;;;;;;4722689;30;19934;-91
2023/03/27 21:17:53;;;;;;;;;;;;;;;;;;4706263;30;20289;-91
2023/03/27 21:20:19;;;;;;;;;;;;;;;;;;4711273;30;19941;-91
2023/03/27 21:22:47;;;;;;;;;;;;;;;;;;4719290;30;20031;-91
2023/03/27 21:25:13;;;;;;;;;;;;;;;;;;4722781;30;19940;-90
2023/03/27 21:27:39;;;;;;;;;;;;;;;;;;4710577;30;20310;-91
2023/03/27 21:30:05;;;;;;;;;;;;;;;;;;4720785;30;20012;-91
2023/03/27 21:32:31;;;;;;;;;;;;;;;;;;4727516;30;19937;-90
2023/03/27 21:34:57;;;;;;;;;;;;;;;;;;4706335;30;20423;-91
2023/03/27 21:37:23;;;;;;;;;;;;;;;;;;4739060;30;19944;-90
2023/03/27 21:39:49;;;;;;;;;;;;;;;;;;4712688;30;20025;-91
2023/03/27 21:42:20;;;;;;;;;;;;;;;;;;4724436;30;19938;-91
2023/03/27 21:44:45;;;;;;;;;;;;;;;;;;4726956;30;19929;-90
2023/03/27 21:47:11;;;;;;;;;;;;;;;;;;4728066;30;20035;-91
2023/03/27 21:49:37;;;;;;;;;;;;;;;;;;4724276;30;19987;-91
2023/03/27 21:52:03;;;;;;;;;;;;;;;;;;4718224;30;20016;-90
2023/03/27 21:54:29;;;;;;;;;;;;;;;;;;4717044;30;20370;-91
2023/03/27 21:56:55;;;;;;;;;;;;;;;;;;4728792;30;19970;-91
2023/03/27 21:59:21;;;;;;;;;;;;;;;;;;4727903;30;19926;-92
2023/03/27 22:01:47;;;;;;;;;;;;;;;;;;4729798;30;19925;-91
2023/03/27 22:04:13;;;;;;;;;;;;;;;;;;4719847;30;20386;-91
2023/03/27 22:06:39;;;;;;;;;;;;;;;;;;4718636;30;19930;-91
2023/03/27 22:09:05;;;;;;;;;;;;;;;;;;4723631;30;19938;-92
2023/03/27 22:11:31;;;;;;;;;;;;;;;;;;4725053;30;21921;-91
2023/03/27 22:13:58;;;;;;;;;;;;;;;;;;4734951;30;19941;-91
2023/03/27 22:16:24;;;;;;;;;;;;;;;;;;4741344;30;19968;-91
2023/03/27 22:18:49;;;;;;;;;;;;;;;;;;4704928;30;19932;-92
2023/03/27 22:21:16;;;;;;;;;;;;;;;;;;4723225;30;20480;-91
2023/03/27 22:23:42;;;;;;;;;;;;;;;;;;4718058;30;20038;-91
2023/03/27 22:26:07;;;;;;;;;;;;;;;;;;4723159;30;19938;-91